sensor_id;sensor_type;location;lat;lon;timestamp;temperature;humidity
26408;DHT22;14583;43.604;1.364;2022-09-09T00:09:47;22.40;99.90
26408;DHT22;14583;43.604;1.364;2022-09-09T00:12:15;22.40;99.90
26408;DHT22;14583;43.604;1.364;2022-09-09T00:14:54;22.30;99.90
26408;DHT22;14583;43.604;1.364;2022-09-09T00:17:35;22.30;99.90
26408;DHT22;14583;43.604;1.364;2022-09-09T00:20:10;22.30;99.90
26408;DHT22;14583;43.604;1.364;2022-09-09T00:22:40;22.30;99.90
26408;DHT22;14583;43.604;1.364;2022-09-09T00:25:11;22.30;99.90
26408;DHT22;14583;43.604;1.364;2022-09-09T00:27:44;22.30;99.90
26408;DHT22;14583;43.604;1.364;2022-09-09T00:30:23;22.20;99.90
26408;DHT22;14583;43.604;1.364;2022-09-09T00:32:54;22.10;99.90
26408;DHT22;14583;43.604;1.364;2022-09-09T00:35:54;22.10;99.90
26408;DHT22;14583;43.604;1.364;2022-09-09T00:38:25;22.00;99.90
26408;DHT22;14583;43.604;1.364;2022-09-09T00:40:58;21.80;99.90
26408;DHT22;14583;43.604;1.364;2022-09-09T00:43:30;21.80;99.90
26408;DHT22;14583;43.604;1.364;2022-09-09T00:51:29;21.80;99.90
26408;DHT22;14583;43.604;1.364;2022-09-09T00:59:47;21.80;99.90
26408;DHT22;14583;43.604;1.364;2022-09-09T01:02:29;21.90;99.90
26408;DHT22;14583;43.604;1.364;2022-09-09T01:05:06;22.00;99.90
26408;DHT22;14583;43.604;1.364;2022-09-09T01:07:32;22.10;99.90
26408;DHT22;14583;43.604;1.364;2022-09-09T01:10:00;22.10;99.90
26408;DHT22;14583;43.604;1.364;2022-09-09T01:12:42;21.90;99.90
26408;DHT22;14583;43.604;1.364;2022-09-09T01:15:22;21.90;99.90
26408;DHT22;14583;43.604;1.364;2022-09-09T01:17:51;21.90;99.90
26408;DHT22;14583;43.604;1.364;2022-09-09T01:20:44;21.90;99.90
26408;DHT22;14583;43.604;1.364;2022-09-09T01:23:44;21.80;99.90
26408;DHT22;14583;43.604;1.364;2022-09-09T01:26:30;21.80;99.90
26408;DHT22;14583;43.604;1.364;2022-09-09T01:28:58;21.80;99.90
26408;DHT22;14583;43.604;1.364;2022-09-09T01:31:34;21.70;99.90
26408;DHT22;14583;43.604;1.364;2022-09-09T01:34:04;21.70;99.90
26408;DHT22;14583;43.604;1.364;2022-09-09T01:39:21;21.70;99.90
26408;DHT22;14583;43.604;1.364;2022-09-09T01:41:46;21.70;99.90
26408;DHT22;14583;43.604;1.364;2022-09-09T01:44:12;21.70;99.90
26408;DHT22;14583;43.604;1.364;2022-09-09T01:46:38;21.70;99.90
26408;DHT22;14583;43.604;1.364;2022-09-09T01:49:06;21.70;99.90
26408;DHT22;14583;43.604;1.364;2022-09-09T01:51:33;21.70;99.90
26408;DHT22;14583;43.604;1.364;2022-09-09T01:53:59;21.90;99.90
26408;DHT22;14583;43.604;1.364;2022-09-09T01:59:24;21.90;99.90
26408;DHT22;14583;43.604;1.364;2022-09-09T02:04:41;21.80;99.90
26408;DHT22;14583;43.604;1.364;2022-09-09T02:07:38;21.80;99.90
26408;DHT22;14583;43.604;1.364;2022-09-09T02:10:19;21.80;99.90
26408;DHT22;14583;43.604;1.364;2022-09-09T02:12:49;21.90;99.90
26408;DHT22;14583;43.604;1.364;2022-09-09T02:18:51;21.90;99.90
26408;DHT22;14583;43.604;1.364;2022-09-09T02:21:19;21.90;99.90
26408;DHT22;14583;43.604;1.364;2022-09-09T02:23:47;21.90;99.90
26408;DHT22;14583;43.604;1.364;2022-09-09T02:26:14;21.80;99.90
26408;DHT22;14583;43.604;1.364;2022-09-09T02:28:46;21.70;99.90
26408;DHT22;14583;43.604;1.364;2022-09-09T02:31:16;21.80;99.90
26408;DHT22;14583;43.604;1.364;2022-09-09T02:33:47;21.70;99.90
26408;DHT22;14583;43.604;1.364;2022-09-09T02:36:17;21.90;99.90
26408;DHT22;14583;43.604;1.364;2022-09-09T02:38:46;22.00;99.90
26408;DHT22;14583;43.604;1.364;2022-09-09T02:41:26;22.00;99.90
26408;DHT22;14583;43.604;1.364;2022-09-09T02:43:53;22.30;99.90
26408;DHT22;14583;43.604;1.364;2022-09-09T02:46:27;22.40;99.90
26408;DHT22;14583;43.604;1.364;2022-09-09T02:49:09;22.50;99.90
26408;DHT22;14583;43.604;1.364;2022-09-09T02:52:04;22.50;99.90
26408;DHT22;14583;43.604;1.364;2022-09-09T02:54:35;22.20;99.90
26408;DHT22;14583;43.604;1.364;2022-09-09T02:57:22;22.00;99.90
26408;DHT22;14583;43.604;1.364;2022-09-09T02:59:50;21.90;99.90
26408;DHT22;14583;43.604;1.364;2022-09-09T03:02:17;21.90;99.90
26408;DHT22;14583;43.604;1.364;2022-09-09T03:04:44;21.80;99.90
26408;DHT22;14583;43.604;1.364;2022-09-09T03:07:11;21.60;99.90
26408;DHT22;14583;43.604;1.364;2022-09-09T03:09:37;21.50;99.90
26408;DHT22;14583;43.604;1.364;2022-09-09T03:12:03;21.60;99.90
26408;DHT22;14583;43.604;1.364;2022-09-09T03:14:32;21.70;99.90
26408;DHT22;14583;43.604;1.364;2022-09-09T03:16:58;21.60;99.90
26408;DHT22;14583;43.604;1.364;2022-09-09T03:19:26;21.60;99.90
26408;DHT22;14583;43.604;1.364;2022-09-09T03:21:53;21.50;99.90
26408;DHT22;14583;43.604;1.364;2022-09-09T03:24:19;21.50;99.90
26408;DHT22;14583;43.604;1.364;2022-09-09T03:26:45;21.60;99.90
26408;DHT22;14583;43.604;1.364;2022-09-09T03:29:11;21.50;99.90
26408;DHT22;14583;43.604;1.364;2022-09-09T03:31:38;21.50;99.90
26408;DHT22;14583;43.604;1.364;2022-09-09T03:34:04;21.50;99.90
26408;DHT22;14583;43.604;1.364;2022-09-09T03:36:32;21.40;99.90
26408;DHT22;14583;43.604;1.364;2022-09-09T03:38:57;21.30;99.90
26408;DHT22;14583;43.604;1.364;2022-09-09T03:41:24;21.20;99.90
26408;DHT22;14583;43.604;1.364;2022-09-09T03:43:51;21.20;99.90
26408;DHT22;14583;43.604;1.364;2022-09-09T03:46:17;21.30;99.90
26408;DHT22;14583;43.604;1.364;2022-09-09T03:48:43;21.20;99.90
26408;DHT22;14583;43.604;1.364;2022-09-09T03:51:09;21.30;99.90
26408;DHT22;14583;43.604;1.364;2022-09-09T03:53:36;21.80;99.90
26408;DHT22;14583;43.604;1.364;2022-09-09T03:56:03;22.10;99.90
26408;DHT22;14583;43.604;1.364;2022-09-09T03:58:29;22.00;99.90
26408;DHT22;14583;43.604;1.364;2022-09-09T04:03:20;21.70;99.90
26408;DHT22;14583;43.604;1.364;2022-09-09T04:05:49;21.60;99.90
26408;DHT22;14583;43.604;1.364;2022-09-09T04:08:14;21.40;99.90
26408;DHT22;14583;43.604;1.364;2022-09-09T04:10:40;21.60;99.90
26408;DHT22;14583;43.604;1.364;2022-09-09T04:13:06;22.00;99.90
26408;DHT22;14583;43.604;1.364;2022-09-09T04:15:32;21.90;99.90
26408;DHT22;14583;43.604;1.364;2022-09-09T04:17:58;21.70;99.90
26408;DHT22;14583;43.604;1.364;2022-09-09T04:20:24;21.70;99.90
26408;DHT22;14583;43.604;1.364;2022-09-09T04:22:49;21.50;99.90
26408;DHT22;14583;43.604;1.364;2022-09-09T04:25:15;21.40;99.90
26408;DHT22;14583;43.604;1.364;2022-09-09T04:27:41;21.40;99.90
26408;DHT22;14583;43.604;1.364;2022-09-09T04:30:08;21.30;99.90
26408;DHT22;14583;43.604;1.364;2022-09-09T04:32:34;21.30;99.90
26408;DHT22;14583;43.604;1.364;2022-09-09T04:35:01;21.30;99.90
26408;DHT22;14583;43.604;1.364;2022-09-09T04:37:27;21.20;99.90
26408;DHT22;14583;43.604;1.364;2022-09-09T04:39:52;21.30;99.90
26408;DHT22;14583;43.604;1.364;2022-09-09T04:42:18;21.30;99.90
26408;DHT22;14583;43.604;1.364;2022-09-09T04:44:44;21.40;99.90
26408;DHT22;14583;43.604;1.364;2022-09-09T04:47:11;21.40;99.90
26408;DHT22;14583;43.604;1.364;2022-09-09T04:49:36;21.30;99.90
26408;DHT22;14583;43.604;1.364;2022-09-09T04:52:03;21.30;99.90
26408;DHT22;14583;43.604;1.364;2022-09-09T04:54:29;21.30;99.90
26408;DHT22;14583;43.604;1.364;2022-09-09T04:56:54;21.20;99.90
26408;DHT22;14583;43.604;1.364;2022-09-09T04:59:21;21.20;99.90
26408;DHT22;14583;43.604;1.364;2022-09-09T05:01:47;21.20;99.90
26408;DHT22;14583;43.604;1.364;2022-09-09T05:04:13;21.20;99.90
26408;DHT22;14583;43.604;1.364;2022-09-09T05:06:40;21.20;99.90
26408;DHT22;14583;43.604;1.364;2022-09-09T05:09:08;21.30;99.90
26408;DHT22;14583;43.604;1.364;2022-09-09T05:11:34;21.30;99.90
26408;DHT22;14583;43.604;1.364;2022-09-09T05:14:02;21.40;99.90
26408;DHT22;14583;43.604;1.364;2022-09-09T05:16:28;21.40;99.90
26408;DHT22;14583;43.604;1.364;2022-09-09T05:18:54;21.50;99.90
26408;DHT22;14583;43.604;1.364;2022-09-09T05:21:21;21.60;99.90
26408;DHT22;14583;43.604;1.364;2022-09-09T05:23:48;21.50;99.90
26408;DHT22;14583;43.604;1.364;2022-09-09T05:26:17;21.40;99.90
26408;DHT22;14583;43.604;1.364;2022-09-09T05:28:43;21.30;99.90
26408;DHT22;14583;43.604;1.364;2022-09-09T05:31:10;21.20;99.90
26408;DHT22;14583;43.604;1.364;2022-09-09T05:33:40;21.00;99.90
26408;DHT22;14583;43.604;1.364;2022-09-09T05:36:11;21.00;99.90
26408;DHT22;14583;43.604;1.364;2022-09-09T05:38:39;21.30;99.90
26408;DHT22;14583;43.604;1.364;2022-09-09T05:41:05;21.20;99.90
26408;DHT22;14583;43.604;1.364;2022-09-09T05:43:32;21.00;99.90
26408;DHT22;14583;43.604;1.364;2022-09-09T05:46:03;21.00;99.90
26408;DHT22;14583;43.604;1.364;2022-09-09T05:48:35;20.80;99.90
26408;DHT22;14583;43.604;1.364;2022-09-09T05:51:01;20.80;99.90
26408;DHT22;14583;43.604;1.364;2022-09-09T05:53:28;20.80;99.90
26408;DHT22;14583;43.604;1.364;2022-09-09T05:56:07;20.70;99.90
26408;DHT22;14583;43.604;1.364;2022-09-09T05:58:34;20.80;99.90
26408;DHT22;14583;43.604;1.364;2022-09-09T06:01:04;20.80;99.90
26408;DHT22;14583;43.604;1.364;2022-09-09T06:03:30;20.70;99.90
26408;DHT22;14583;43.604;1.364;2022-09-09T06:06:04;20.80;99.90
26408;DHT22;14583;43.604;1.364;2022-09-09T06:08:34;20.70;99.90
26408;DHT22;14583;43.604;1.364;2022-09-09T06:11:13;20.60;99.90
26408;DHT22;14583;43.604;1.364;2022-09-09T06:13:40;20.50;99.90
26408;DHT22;14583;43.604;1.364;2022-09-09T06:16:09;20.40;99.90
26408;DHT22;14583;43.604;1.364;2022-09-09T06:18:37;20.40;99.90
26408;DHT22;14583;43.604;1.364;2022-09-09T06:21:06;20.40;99.90
26408;DHT22;14583;43.604;1.364;2022-09-09T06:23:33;20.50;99.90
26408;DHT22;14583;43.604;1.364;2022-09-09T06:26:18;20.80;99.90
26408;DHT22;14583;43.604;1.364;2022-09-09T06:28:45;20.60;99.90
26408;DHT22;14583;43.604;1.364;2022-09-09T06:31:12;20.60;99.90
26408;DHT22;14583;43.604;1.364;2022-09-09T06:33:42;20.50;99.90
26408;DHT22;14583;43.604;1.364;2022-09-09T06:36:14;20.60;99.90
26408;DHT22;14583;43.604;1.364;2022-09-09T06:38:44;20.60;99.90
26408;DHT22;14583;43.604;1.364;2022-09-09T06:41:13;20.70;99.90
26408;DHT22;14583;43.604;1.364;2022-09-09T06:43:39;20.70;99.90
26408;DHT22;14583;43.604;1.364;2022-09-09T06:48:32;20.80;99.90
26408;DHT22;14583;43.604;1.364;2022-09-09T06:51:04;20.80;99.90
26408;DHT22;14583;43.604;1.364;2022-09-09T06:53:33;20.80;99.90
26408;DHT22;14583;43.604;1.364;2022-09-09T06:58:40;20.80;99.90
26408;DHT22;14583;43.604;1.364;2022-09-09T07:01:11;20.80;99.90
26408;DHT22;14583;43.604;1.364;2022-09-09T07:03:41;20.70;99.90
26408;DHT22;14583;43.604;1.364;2022-09-09T07:06:09;20.80;99.90
26408;DHT22;14583;43.604;1.364;2022-09-09T07:08:39;20.70;99.90
26408;DHT22;14583;43.604;1.364;2022-09-09T07:11:06;20.70;99.90
26408;DHT22;14583;43.604;1.364;2022-09-09T07:13:32;20.80;99.90
26408;DHT22;14583;43.604;1.364;2022-09-09T07:16:13;20.80;99.90
26408;DHT22;14583;43.604;1.364;2022-09-09T07:18:40;20.70;99.90
26408;DHT22;14583;43.604;1.364;2022-09-09T07:21:06;20.60;99.90
26408;DHT22;14583;43.604;1.364;2022-09-09T07:23:32;20.60;99.90
26408;DHT22;14583;43.604;1.364;2022-09-09T07:25:58;20.60;99.90
26408;DHT22;14583;43.604;1.364;2022-09-09T07:28:25;20.60;99.90
26408;DHT22;14583;43.604;1.364;2022-09-09T07:30:59;20.60;99.90
26408;DHT22;14583;43.604;1.364;2022-09-09T07:33:28;20.70;99.90
26408;DHT22;14583;43.604;1.364;2022-09-09T07:36:10;20.60;99.90
26408;DHT22;14583;43.604;1.364;2022-09-09T07:38:39;20.60;99.90
26408;DHT22;14583;43.604;1.364;2022-09-09T07:41:10;20.60;99.90
26408;DHT22;14583;43.604;1.364;2022-09-09T07:43:43;20.60;99.90
26408;DHT22;14583;43.604;1.364;2022-09-09T07:46:10;20.60;99.90
26408;DHT22;14583;43.604;1.364;2022-09-09T07:48:38;20.70;99.90
26408;DHT22;14583;43.604;1.364;2022-09-09T07:51:10;20.80;99.90
26408;DHT22;14583;43.604;1.364;2022-09-09T07:53:37;20.90;99.90
26408;DHT22;14583;43.604;1.364;2022-09-09T07:56:08;20.80;99.90
26408;DHT22;14583;43.604;1.364;2022-09-09T07:58:37;20.70;99.90
26408;DHT22;14583;43.604;1.364;2022-09-09T08:01:12;20.70;99.90
26408;DHT22;14583;43.604;1.364;2022-09-09T08:03:38;20.90;99.90
26408;DHT22;14583;43.604;1.364;2022-09-09T08:06:07;20.90;99.90
26408;DHT22;14583;43.604;1.364;2022-09-09T08:08:36;20.80;99.90
26408;DHT22;14583;43.604;1.364;2022-09-09T08:11:11;20.90;99.90
26408;DHT22;14583;43.604;1.364;2022-09-09T08:13:37;20.90;99.90
26408;DHT22;14583;43.604;1.364;2022-09-09T08:16:09;21.00;99.90
26408;DHT22;14583;43.604;1.364;2022-09-09T08:18:35;21.00;99.90
26408;DHT22;14583;43.604;1.364;2022-09-09T08:23:41;21.10;99.90
26408;DHT22;14583;43.604;1.364;2022-09-09T08:26:17;21.00;99.90
26408;DHT22;14583;43.604;1.364;2022-09-09T08:28:48;20.90;99.90
26408;DHT22;14583;43.604;1.364;2022-09-09T08:33:44;20.90;99.90
26408;DHT22;14583;43.604;1.364;2022-09-09T08:36:16;20.70;99.90
26408;DHT22;14583;43.604;1.364;2022-09-09T08:38:43;20.70;99.90
26408;DHT22;14583;43.604;1.364;2022-09-09T08:43:58;20.60;99.90
26408;DHT22;14583;43.604;1.364;2022-09-09T08:46:51;20.70;99.90
26408;DHT22;14583;43.604;1.364;2022-09-09T08:49:39;20.70;99.90
26408;DHT22;14583;43.604;1.364;2022-09-09T08:52:30;20.60;99.90
26408;DHT22;14583;43.604;1.364;2022-09-09T08:57:45;20.60;99.90
26408;DHT22;14583;43.604;1.364;2022-09-09T09:00:12;20.60;99.90
26408;DHT22;14583;43.604;1.364;2022-09-09T09:08:09;20.20;99.90
26408;DHT22;14583;43.604;1.364;2022-09-09T09:10:47;20.10;99.90
26408;DHT22;14583;43.604;1.364;2022-09-09T09:13:15;20.00;99.90
26408;DHT22;14583;43.604;1.364;2022-09-09T09:15:42;20.00;99.90
26408;DHT22;14583;43.604;1.364;2022-09-09T09:18:12;20.00;99.90
26408;DHT22;14583;43.604;1.364;2022-09-09T09:20:52;20.00;99.90
26408;DHT22;14583;43.604;1.364;2022-09-09T09:23:29;20.00;99.90
26408;DHT22;14583;43.604;1.364;2022-09-09T09:26:00;20.00;99.90
26408;DHT22;14583;43.604;1.364;2022-09-09T09:28:30;20.00;99.90
26408;DHT22;14583;43.604;1.364;2022-09-09T09:31:04;19.80;99.90
26408;DHT22;14583;43.604;1.364;2022-09-09T09:36:07;19.80;99.90
26408;DHT22;14583;43.604;1.364;2022-09-09T09:38:35;19.90;99.90
26408;DHT22;14583;43.604;1.364;2022-09-09T09:41:01;19.80;99.90
26408;DHT22;14583;43.604;1.364;2022-09-09T09:43:33;19.70;99.90
26408;DHT22;14583;43.604;1.364;2022-09-09T09:45:59;19.80;99.90
26408;DHT22;14583;43.604;1.364;2022-09-09T09:48:27;19.70;99.90
26408;DHT22;14583;43.604;1.364;2022-09-09T09:50:59;19.90;99.90
26408;DHT22;14583;43.604;1.364;2022-09-09T09:53:34;19.70;99.90
26408;DHT22;14583;43.604;1.364;2022-09-09T09:58:32;19.80;99.90
26408;DHT22;14583;43.604;1.364;2022-09-09T10:01:00;19.80;99.90
26408;DHT22;14583;43.604;1.364;2022-09-09T10:03:31;19.70;99.90
26408;DHT22;14583;43.604;1.364;2022-09-09T10:05:57;19.70;99.90
26408;DHT22;14583;43.604;1.364;2022-09-09T10:08:27;19.60;99.90
26408;DHT22;14583;43.604;1.364;2022-09-09T10:11:09;19.50;99.90
26408;DHT22;14583;43.604;1.364;2022-09-09T10:16:18;19.30;99.90
26408;DHT22;14583;43.604;1.364;2022-09-09T10:18:59;19.20;99.90
26408;DHT22;14583;43.604;1.364;2022-09-09T10:27:22;19.50;99.90
26408;DHT22;14583;43.604;1.364;2022-09-09T10:30:19;19.50;99.90
26408;DHT22;14583;43.604;1.364;2022-09-09T10:35:35;19.50;99.90
26408;DHT22;14583;43.604;1.364;2022-09-09T10:38:34;19.50;99.90
26408;DHT22;14583;43.604;1.364;2022-09-09T10:47:20;19.50;99.90
26408;DHT22;14583;43.604;1.364;2022-09-09T10:49:57;19.50;99.90
26408;DHT22;14583;43.604;1.364;2022-09-09T10:52:48;19.50;99.90
26408;DHT22;14583;43.604;1.364;2022-09-09T10:55:20;19.60;99.90
26408;DHT22;14583;43.604;1.364;2022-09-09T10:57:50;19.60;99.90
26408;DHT22;14583;43.604;1.364;2022-09-09T11:00:45;19.60;99.90
26408;DHT22;14583;43.604;1.364;2022-09-09T11:03:40;19.70;99.90
26408;DHT22;14583;43.604;1.364;2022-09-09T11:06:17;19.60;99.90
26408;DHT22;14583;43.604;1.364;2022-09-09T11:08:45;19.70;99.90
26408;DHT22;14583;43.604;1.364;2022-09-09T11:11:34;19.80;99.90
26408;DHT22;14583;43.604;1.364;2022-09-09T11:14:30;19.60;99.90
26408;DHT22;14583;43.604;1.364;2022-09-09T11:17:04;19.80;99.90
26408;DHT22;14583;43.604;1.364;2022-09-09T11:19:40;20.00;99.90
26408;DHT22;14583;43.604;1.364;2022-09-09T11:22:28;20.10;99.90
26408;DHT22;14583;43.604;1.364;2022-09-09T11:25:07;20.20;99.90
26408;DHT22;14583;43.604;1.364;2022-09-09T11:41:52;20.50;99.90
26408;DHT22;14583;43.604;1.364;2022-09-09T11:44:23;20.40;99.90
26408;DHT22;14583;43.604;1.364;2022-09-09T11:46:51;20.40;99.90
26408;DHT22;14583;43.604;1.364;2022-09-09T11:49:29;20.50;99.90
26408;DHT22;14583;43.604;1.364;2022-09-09T11:51:56;20.60;99.90
26408;DHT22;14583;43.604;1.364;2022-09-09T11:54:29;20.40;99.90
26408;DHT22;14583;43.604;1.364;2022-09-09T11:56:55;20.60;99.90
26408;DHT22;14583;43.604;1.364;2022-09-09T11:59:30;20.60;99.90
26408;DHT22;14583;43.604;1.364;2022-09-09T12:02:14;20.70;99.90
26408;DHT22;14583;43.604;1.364;2022-09-09T12:04:46;20.90;99.90
26408;DHT22;14583;43.604;1.364;2022-09-09T12:07:39;21.00;99.90
26408;DHT22;14583;43.604;1.364;2022-09-09T12:12:37;21.30;99.90
26408;DHT22;14583;43.604;1.364;2022-09-09T12:15:27;21.10;99.90
26408;DHT22;14583;43.604;1.364;2022-09-09T12:17:57;21.20;99.90
26408;DHT22;14583;43.604;1.364;2022-09-09T12:20:30;21.40;99.90
26408;DHT22;14583;43.604;1.364;2022-09-09T12:28:21;21.40;99.90
26408;DHT22;14583;43.604;1.364;2022-09-09T12:31:10;21.60;99.90
26408;DHT22;14583;43.604;1.364;2022-09-09T12:33:39;21.80;99.90
26408;DHT22;14583;43.604;1.364;2022-09-09T12:36:17;21.90;99.90
26408;DHT22;14583;43.604;1.364;2022-09-09T12:38:45;22.00;99.90
26408;DHT22;14583;43.604;1.364;2022-09-09T12:41:22;22.00;99.90
26408;DHT22;14583;43.604;1.364;2022-09-09T12:43:49;21.90;99.90
26408;DHT22;14583;43.604;1.364;2022-09-09T12:46:40;22.00;99.90
26408;DHT22;14583;43.604;1.364;2022-09-09T12:49:35;21.80;99.90
26408;DHT22;14583;43.604;1.364;2022-09-09T12:52:27;22.00;99.90
26408;DHT22;14583;43.604;1.364;2022-09-09T12:54:55;22.20;99.90
26408;DHT22;14583;43.604;1.364;2022-09-09T12:57:23;22.00;99.90
26408;DHT22;14583;43.604;1.364;2022-09-09T12:59:51;22.10;99.90
26408;DHT22;14583;43.604;1.364;2022-09-09T13:02:22;22.20;99.90
26408;DHT22;14583;43.604;1.364;2022-09-09T13:04:49;22.30;99.90
26408;DHT22;14583;43.604;1.364;2022-09-09T13:07:17;22.30;99.90
26408;DHT22;14583;43.604;1.364;2022-09-09T13:09:44;22.40;99.90
26408;DHT22;14583;43.604;1.364;2022-09-09T13:12:18;22.50;99.90
26408;DHT22;14583;43.604;1.364;2022-09-09T13:14:47;22.30;99.90
26408;DHT22;14583;43.604;1.364;2022-09-09T13:17:27;22.20;99.90
26408;DHT22;14583;43.604;1.364;2022-09-09T13:19:56;22.30;99.90
26408;DHT22;14583;43.604;1.364;2022-09-09T13:22:35;22.30;99.90
26408;DHT22;14583;43.604;1.364;2022-09-09T13:25:25;22.60;99.90
26408;DHT22;14583;43.604;1.364;2022-09-09T13:30:24;22.90;99.90
26408;DHT22;14583;43.604;1.364;2022-09-09T13:33:22;22.70;99.90
26408;DHT22;14583;43.604;1.364;2022-09-09T13:35:55;23.00;99.90
26408;DHT22;14583;43.604;1.364;2022-09-09T13:38:21;23.10;99.90
26408;DHT22;14583;43.604;1.364;2022-09-09T13:40:57;23.10;99.90
26408;DHT22;14583;43.604;1.364;2022-09-09T13:43:27;23.50;99.90
26408;DHT22;14583;43.604;1.364;2022-09-09T13:46:01;23.70;99.90
26408;DHT22;14583;43.604;1.364;2022-09-09T13:48:29;23.60;99.90
26408;DHT22;14583;43.604;1.364;2022-09-09T13:50:58;23.70;99.90
26408;DHT22;14583;43.604;1.364;2022-09-09T13:53:24;23.90;99.90
26408;DHT22;14583;43.604;1.364;2022-09-09T13:55:50;24.00;99.90
26408;DHT22;14583;43.604;1.364;2022-09-09T13:58:17;23.90;99.90
26408;DHT22;14583;43.604;1.364;2022-09-09T14:00:44;24.00;99.90
26408;DHT22;14583;43.604;1.364;2022-09-09T14:03:10;24.00;99.90
26408;DHT22;14583;43.604;1.364;2022-09-09T14:05:36;24.00;99.90
26408;DHT22;14583;43.604;1.364;2022-09-09T14:08:04;24.00;99.90
26408;DHT22;14583;43.604;1.364;2022-09-09T14:10:30;24.10;99.90
26408;DHT22;14583;43.604;1.364;2022-09-09T14:12:56;23.90;99.90
26408;DHT22;14583;43.604;1.364;2022-09-09T14:15:22;23.80;99.90
26408;DHT22;14583;43.604;1.364;2022-09-09T14:17:48;23.70;99.90
26408;DHT22;14583;43.604;1.364;2022-09-09T14:20:14;24.30;99.90
26408;DHT22;14583;43.604;1.364;2022-09-09T14:22:41;24.80;99.90
26408;DHT22;14583;43.604;1.364;2022-09-09T14:25:07;24.90;99.90
26408;DHT22;14583;43.604;1.364;2022-09-09T14:27:33;24.60;99.90
26408;DHT22;14583;43.604;1.364;2022-09-09T14:29:59;24.40;99.90
26408;DHT22;14583;43.604;1.364;2022-09-09T14:32:26;24.60;99.90
26408;DHT22;14583;43.604;1.364;2022-09-09T14:34:52;24.90;99.90
26408;DHT22;14583;43.604;1.364;2022-09-09T14:37:18;25.00;99.90
26408;DHT22;14583;43.604;1.364;2022-09-09T14:39:44;24.90;99.90
26408;DHT22;14583;43.604;1.364;2022-09-09T14:42:12;24.60;99.90
26408;DHT22;14583;43.604;1.364;2022-09-09T14:44:38;24.40;99.90
26408;DHT22;14583;43.604;1.364;2022-09-09T14:47:05;24.40;99.90
26408;DHT22;14583;43.604;1.364;2022-09-09T14:49:30;24.20;99.90
26408;DHT22;14583;43.604;1.364;2022-09-09T14:51:56;24.70;99.90
26408;DHT22;14583;43.604;1.364;2022-09-09T14:54:22;25.10;99.70
26408;DHT22;14583;43.604;1.364;2022-09-09T14:56:48;25.10;99.90
26408;DHT22;14583;43.604;1.364;2022-09-09T14:59:14;25.20;99.90
26408;DHT22;14583;43.604;1.364;2022-09-09T15:01:40;25.30;99.90
26408;DHT22;14583;43.604;1.364;2022-09-09T15:04:06;26.10;99.90
26408;DHT22;14583;43.604;1.364;2022-09-09T15:06:34;26.20;98.20
26408;DHT22;14583;43.604;1.364;2022-09-09T15:09:02;26.20;99.90
26408;DHT22;14583;43.604;1.364;2022-09-09T15:11:30;26.10;98.90
26408;DHT22;14583;43.604;1.364;2022-09-09T15:13:56;26.40;98.00
26408;DHT22;14583;43.604;1.364;2022-09-09T15:16:24;26.60;96.90
26408;DHT22;14583;43.604;1.364;2022-09-09T15:18:53;27.20;97.50
26408;DHT22;14583;43.604;1.364;2022-09-09T15:21:22;26.70;95.70
26408;DHT22;14583;43.604;1.364;2022-09-09T15:23:48;26.30;96.50
26408;DHT22;14583;43.604;1.364;2022-09-09T15:26:15;25.80;97.00
26408;DHT22;14583;43.604;1.364;2022-09-09T15:28:41;25.50;97.40
26408;DHT22;14583;43.604;1.364;2022-09-09T15:31:16;25.00;98.20
26408;DHT22;14583;43.604;1.364;2022-09-09T15:33:49;25.10;98.50
26408;DHT22;14583;43.604;1.364;2022-09-09T15:36:23;25.80;98.40
26408;DHT22;14583;43.604;1.364;2022-09-09T15:38:50;28.00;94.80
26408;DHT22;14583;43.604;1.364;2022-09-09T15:41:18;32.70;93.40
26408;DHT22;14583;43.604;1.364;2022-09-09T15:43:48;38.40;79.00
26408;DHT22;14583;43.604;1.364;2022-09-09T15:46:21;41.50;66.70
26408;DHT22;14583;43.604;1.364;2022-09-09T15:48:52;43.00;60.60
26408;DHT22;14583;43.604;1.364;2022-09-09T15:51:18;44.40;56.90
26408;DHT22;14583;43.604;1.364;2022-09-09T15:53:44;45.30;55.60
26408;DHT22;14583;43.604;1.364;2022-09-09T15:56:10;45.90;53.70
26408;DHT22;14583;43.604;1.364;2022-09-09T15:58:36;45.60;51.60
26408;DHT22;14583;43.604;1.364;2022-09-09T16:01:03;43.80;51.90
26408;DHT22;14583;43.604;1.364;2022-09-09T16:03:34;44.70;51.70
26408;DHT22;14583;43.604;1.364;2022-09-09T16:05:59;44.30;51.60
26408;DHT22;14583;43.604;1.364;2022-09-09T16:08:31;45.00;50.30
26408;DHT22;14583;43.604;1.364;2022-09-09T16:10:56;45.30;50.80
26408;DHT22;14583;43.604;1.364;2022-09-09T16:13:28;40.40;52.30
26408;DHT22;14583;43.604;1.364;2022-09-09T16:15:58;42.30;52.70
26408;DHT22;14583;43.604;1.364;2022-09-09T16:18:24;44.00;51.80
26408;DHT22;14583;43.604;1.364;2022-09-09T16:20:55;45.10;51.10
26408;DHT22;14583;43.604;1.364;2022-09-09T16:23:21;45.30;50.20
26408;DHT22;14583;43.604;1.364;2022-09-09T16:25:56;45.70;49.30
26408;DHT22;14583;43.604;1.364;2022-09-09T16:28:22;46.10;48.50
26408;DHT22;14583;43.604;1.364;2022-09-09T16:30:48;42.60;49.60
26408;DHT22;14583;43.604;1.364;2022-09-09T16:33:15;42.00;49.30
26408;DHT22;14583;43.604;1.364;2022-09-09T16:35:41;41.50;50.20
26408;DHT22;14583;43.604;1.364;2022-09-09T16:38:07;42.30;50.90
26408;DHT22;14583;43.604;1.364;2022-09-09T16:40:39;42.80;50.20
26408;DHT22;14583;43.604;1.364;2022-09-09T16:43:07;42.70;50.20
26408;DHT22;14583;43.604;1.364;2022-09-09T16:45:32;42.20;48.80
26408;DHT22;14583;43.604;1.364;2022-09-09T16:47:59;41.00;51.50
26408;DHT22;14583;43.604;1.364;2022-09-09T16:50:26;40.60;51.30
26408;DHT22;14583;43.604;1.364;2022-09-09T16:52:52;40.20;51.10
26408;DHT22;14583;43.604;1.364;2022-09-09T16:55:18;36.00;53.60
26408;DHT22;14583;43.604;1.364;2022-09-09T16:57:46;32.90;57.20
26408;DHT22;14583;43.604;1.364;2022-09-09T17:00:15;32.70;59.70
26408;DHT22;14583;43.604;1.364;2022-09-09T17:02:44;32.70;58.10
26408;DHT22;14583;43.604;1.364;2022-09-09T17:05:10;33.40;57.90
26408;DHT22;14583;43.604;1.364;2022-09-09T17:07:37;33.50;58.10
26408;DHT22;14583;43.604;1.364;2022-09-09T17:10:04;33.20;58.00
26408;DHT22;14583;43.604;1.364;2022-09-09T17:12:31;31.80;60.00
26408;DHT22;14583;43.604;1.364;2022-09-09T17:14:57;30.60;62.40
26408;DHT22;14583;43.604;1.364;2022-09-09T17:17:25;29.70;65.00
26408;DHT22;14583;43.604;1.364;2022-09-09T17:19:52;28.80;67.10
26408;DHT22;14583;43.604;1.364;2022-09-09T17:22:18;28.10;68.90
26408;DHT22;14583;43.604;1.364;2022-09-09T17:24:44;27.70;69.80
26408;DHT22;14583;43.604;1.364;2022-09-09T17:27:10;27.40;71.20
26408;DHT22;14583;43.604;1.364;2022-09-09T17:29:37;27.20;72.30
26408;DHT22;14583;43.604;1.364;2022-09-09T17:32:03;27.10;73.00
26408;DHT22;14583;43.604;1.364;2022-09-09T17:34:30;26.90;73.90